createdAt,value
2018-12-26T00:00:24.279Z,0.00
2018-12-26T00:01:24.368Z,0.00
2018-12-26T00:02:24.161Z,0.00
2018-12-26T00:03:24.114Z,0.00
2018-12-26T00:04:24.074Z,0.00
2018-12-26T00:05:24.150Z,0.00
2018-12-26T00:06:23.943Z,0.00
2018-12-26T00:07:23.889Z,0.00
2018-12-26T00:08:23.830Z,0.00
2018-12-26T00:09:23.796Z,0.00
2018-12-26T00:10:23.714Z,0.00
2018-12-26T00:11:23.659Z,0.00
2018-12-26T00:12:24.052Z,0.00
2018-12-26T00:13:23.546Z,0.00
2018-12-26T00:14:23.513Z,0.00
2018-12-26T00:15:23.433Z,0.00
2018-12-26T00:16:23.386Z,0.00
2018-12-26T00:17:23.323Z,0.00
2018-12-26T00:18:23.306Z,0.00
2018-12-26T00:19:23.234Z,0.00
2018-12-26T00:20:23.152Z,0.00
2018-12-26T00:21:23.097Z,0.00
2018-12-26T00:22:23.088Z,0.00
2018-12-26T00:23:22.987Z,0.00
2018-12-26T00:24:22.956Z,0.00
2018-12-26T00:25:22.893Z,0.00
2018-12-26T00:26:22.825Z,0.00
2018-12-26T00:27:22.760Z,0.00
2018-12-26T00:28:22.701Z,0.00
2018-12-26T00:29:22.669Z,0.00
2018-12-26T00:30:22.604Z,0.00
2018-12-26T00:31:22.539Z,0.00
2018-12-26T00:32:22.488Z,0.00
2018-12-26T00:33:22.424Z,0.00
2018-12-26T00:34:22.394Z,0.00
2018-12-26T00:35:22.315Z,0.00
2018-12-26T00:36:22.259Z,0.00
2018-12-26T00:37:22.219Z,0.00
2018-12-26T00:38:22.144Z,0.00
2018-12-26T00:39:22.110Z,0.00
2018-12-26T00:40:22.032Z,0.00
2018-12-26T00:41:21.977Z,0.00
2018-12-26T00:42:21.919Z,0.00
2018-12-26T00:43:21.869Z,0.00
2018-12-26T00:44:21.830Z,0.00
2018-12-26T00:45:21.747Z,0.00
2018-12-26T00:46:21.697Z,0.00
2018-12-26T00:47:21.708Z,0.00
2018-12-26T00:48:21.601Z,0.00
2018-12-26T00:49:21.549Z,0.00
2018-12-26T00:50:21.469Z,0.00
2018-12-26T00:51:21.414Z,0.00
2018-12-26T00:52:21.361Z,0.00
2018-12-26T00:53:21.301Z,0.00
2018-12-26T00:54:21.268Z,0.00
2018-12-26T00:55:21.190Z,0.00
2018-12-26T00:56:21.134Z,0.00
2018-12-26T00:57:21.078Z,0.00
2018-12-26T00:58:21.029Z,0.00
2018-12-26T00:59:20.995Z,0.00
2018-12-26T01:00:20.935Z,0.00
2018-12-26T01:01:20.852Z,0.00
2018-12-26T01:02:20.801Z,0.00
2018-12-26T01:03:20.741Z,0.00
2018-12-26T01:04:20.686Z,0.00
2018-12-26T01:05:20.649Z,0.00
2018-12-26T01:06:20.573Z,0.00
2018-12-26T01:07:20.514Z,0.00
2018-12-26T01:08:20.460Z,0.00
2018-12-26T01:09:20.401Z,0.00
2018-12-26T01:10:20.373Z,0.00
2018-12-26T01:11:20.301Z,0.00
2018-12-26T01:12:20.240Z,0.00
2018-12-26T01:13:20.175Z,0.00
2018-12-26T01:14:20.116Z,0.00
2018-12-26T01:15:20.088Z,0.00
2018-12-26T01:16:20.009Z,0.00
2018-12-26T01:17:19.954Z,0.00
2018-12-26T01:18:19.894Z,0.00
2018-12-26T01:19:19.843Z,0.00
2018-12-26T01:20:19.811Z,0.00
2018-12-26T01:21:19.726Z,0.00
2018-12-26T01:22:19.673Z,0.00
2018-12-26T01:23:19.613Z,0.00
2018-12-26T01:24:19.561Z,0.00
2018-12-26T01:25:19.529Z,0.00
2018-12-26T01:26:19.560Z,0.00
2018-12-26T01:27:19.388Z,0.00
2018-12-26T01:28:19.336Z,0.00
2018-12-26T01:29:19.276Z,0.00
2018-12-26T01:30:19.242Z,0.00
2018-12-26T01:31:19.170Z,0.00
2018-12-26T01:32:19.141Z,0.00
2018-12-26T01:33:19.055Z,0.00
2018-12-26T01:34:18.991Z,0.00
2018-12-26T01:35:18.964Z,0.00
2018-12-26T01:36:18.885Z,0.00
2018-12-26T01:37:18.825Z,0.00
2018-12-26T01:38:18.772Z,0.00
2018-12-26T01:39:18.714Z,0.00
2018-12-26T01:40:18.683Z,0.00
2018-12-26T01:41:18.617Z,0.00
2018-12-26T01:42:18.544Z,0.00
2018-12-26T01:43:18.489Z,0.00
2018-12-26T01:44:18.439Z,0.00
2018-12-26T01:45:18.405Z,0.00
2018-12-26T01:46:18.323Z,0.00
2018-12-26T01:47:18.264Z,0.00
2018-12-26T01:48:18.212Z,0.00
2018-12-26T01:49:18.152Z,0.00
2018-12-26T01:50:18.117Z,0.00
2018-12-26T01:51:18.038Z,0.00
2018-12-26T01:52:17.983Z,0.00
2018-12-26T01:53:17.931Z,0.00
2018-12-26T01:54:17.876Z,0.00
2018-12-26T01:55:17.841Z,0.00
2018-12-26T01:56:17.763Z,0.00
2018-12-26T01:57:17.704Z,0.00
2018-12-26T01:58:17.646Z,0.00
2018-12-26T01:59:17.591Z,0.00
2018-12-26T02:00:17.559Z,0.00
2018-12-26T02:01:17.477Z,0.00
2018-12-26T02:02:17.426Z,0.00
2018-12-26T02:03:17.366Z,0.00
2018-12-26T02:04:17.309Z,0.00
2018-12-26T02:05:17.280Z,0.00
2018-12-26T02:06:17.195Z,0.00
2018-12-26T02:07:17.139Z,0.00
2018-12-26T02:08:17.087Z,0.00
2018-12-26T02:09:17.030Z,0.00
2018-12-26T02:10:17.009Z,0.00
2018-12-26T02:11:16.923Z,0.00
2018-12-26T02:12:16.861Z,0.00
2018-12-26T02:13:16.799Z,0.00
2018-12-26T02:14:16.749Z,0.00
2018-12-26T02:15:16.690Z,0.00
2018-12-26T02:16:16.651Z,0.00
2018-12-26T02:17:16.574Z,0.00
2018-12-26T02:18:16.520Z,0.00
2018-12-26T02:19:16.458Z,0.00
2018-12-26T02:20:16.408Z,0.00
2018-12-26T02:21:16.368Z,0.00
2018-12-26T02:22:16.292Z,0.00
2018-12-26T02:23:16.243Z,0.00
2018-12-26T02:24:16.182Z,0.00
2018-12-26T02:25:16.125Z,0.00
2018-12-26T02:26:16.098Z,0.00
2018-12-26T02:27:16.016Z,0.00
2018-12-26T02:28:15.956Z,0.00
2018-12-26T02:29:15.900Z,0.00
2018-12-26T02:30:15.846Z,0.00
2018-12-26T02:31:15.815Z,0.00
2018-12-26T02:32:15.760Z,0.00
2018-12-26T02:33:15.676Z,0.00
2018-12-26T02:34:15.616Z,0.00
2018-12-26T02:35:15.564Z,0.00
2018-12-26T02:36:15.536Z,0.00
2018-12-26T02:37:15.453Z,0.00
2018-12-26T02:38:15.394Z,0.00
2018-12-26T02:39:15.340Z,0.00
2018-12-26T02:40:15.285Z,0.00
2018-12-26T02:41:15.248Z,0.00
2018-12-26T02:42:15.168Z,0.00
2018-12-26T02:43:15.109Z,0.00
2018-12-26T02:44:15.053Z,0.00
2018-12-26T02:45:15.001Z,0.00
2018-12-26T02:46:14.970Z,0.00
2018-12-26T02:47:14.887Z,0.00
2018-12-26T02:48:14.829Z,0.00
2018-12-26T02:49:14.777Z,0.00
2018-12-26T02:50:14.713Z,0.00
2018-12-26T02:51:14.687Z,0.00
2018-12-26T02:52:14.608Z,0.00
2018-12-26T02:53:14.548Z,0.00
2018-12-26T02:54:14.495Z,0.00
2018-12-26T02:55:14.441Z,0.00
2018-12-26T02:56:14.406Z,0.00
2018-12-26T02:57:14.321Z,0.00
2018-12-26T02:58:14.267Z,0.00
2018-12-26T02:59:14.227Z,0.00
2018-12-26T03:00:14.156Z,0.00
2018-12-26T03:01:14.120Z,0.00
2018-12-26T03:02:14.045Z,0.00
2018-12-26T03:03:14.008Z,0.00
2018-12-26T03:04:13.929Z,0.00
2018-12-26T03:05:13.876Z,0.00
2018-12-26T03:06:13.838Z,0.00
2018-12-26T03:07:13.761Z,0.00
2018-12-26T03:08:13.709Z,0.00
2018-12-26T03:09:13.648Z,0.00
2018-12-26T03:10:13.589Z,0.00
2018-12-26T03:11:13.557Z,0.00
2018-12-26T03:12:13.478Z,0.00
2018-12-26T03:13:13.424Z,0.00
2018-12-26T03:14:13.380Z,0.00
2018-12-26T03:15:13.308Z,0.00
2018-12-26T03:16:13.297Z,0.00
2018-12-26T03:17:13.197Z,0.00
2018-12-26T03:18:13.138Z,0.00
2018-12-26T03:19:13.086Z,0.00
2018-12-26T03:20:13.027Z,0.00
2018-12-26T03:21:12.976Z,0.00
2018-12-26T03:22:12.939Z,0.00
2018-12-26T03:23:12.862Z,0.00
2018-12-26T03:24:12.800Z,0.00
2018-12-26T03:25:12.745Z,0.00
2018-12-26T03:26:12.687Z,0.00
2018-12-26T03:27:12.657Z,0.00
2018-12-26T03:28:12.576Z,0.00
2018-12-26T03:29:12.522Z,0.00
2018-12-26T03:30:12.465Z,0.00
2018-12-26T03:31:12.406Z,0.00
2018-12-26T03:32:12.375Z,0.00
2018-12-26T03:33:12.299Z,0.00
2018-12-26T03:34:12.240Z,0.00
2018-12-26T03:35:12.184Z,0.00
2018-12-26T03:36:12.124Z,0.00
2018-12-26T03:37:12.081Z,0.00
2018-12-26T03:38:12.025Z,0.00
2018-12-26T03:39:11.984Z,0.00
2018-12-26T03:40:11.898Z,0.00
2018-12-26T03:41:11.842Z,0.00
2018-12-26T03:42:11.807Z,0.00
2018-12-26T03:43:11.729Z,0.00
2018-12-26T03:44:11.681Z,0.00
2018-12-26T03:45:11.620Z,0.00
2018-12-26T03:46:11.585Z,0.00
2018-12-26T03:47:11.527Z,0.00
2018-12-26T03:48:11.447Z,0.00
2018-12-26T03:49:11.391Z,0.00
2018-12-26T03:50:11.337Z,0.00
2018-12-26T03:51:11.283Z,0.00
2018-12-26T03:52:11.246Z,0.00
2018-12-26T03:53:11.166Z,0.00
2018-12-26T03:54:11.106Z,0.00
2018-12-26T03:55:11.052Z,0.00
2018-12-26T03:56:11.001Z,0.00
2018-12-26T03:57:10.967Z,0.00
2018-12-26T03:58:10.890Z,0.00
2018-12-26T03:59:10.830Z,0.00
2018-12-26T04:00:10.771Z,0.00
2018-12-26T04:01:10.719Z,0.00
2018-12-26T04:02:10.695Z,0.00
2018-12-26T04:03:10.600Z,0.00
2018-12-26T04:04:10.544Z,0.00
2018-12-26T04:05:10.491Z,0.00
2018-12-26T04:06:10.436Z,0.00
2018-12-26T04:07:10.383Z,0.00
2018-12-26T04:08:10.350Z,0.00
2018-12-26T04:09:10.262Z,0.00
2018-12-26T04:10:10.208Z,0.00
2018-12-26T04:11:10.156Z,0.00
2018-12-26T04:12:10.098Z,0.00
2018-12-26T04:13:10.058Z,0.00
2018-12-26T04:14:09.986Z,0.00
2018-12-26T04:15:09.923Z,0.00
2018-12-26T04:16:09.868Z,0.00
2018-12-26T04:17:09.812Z,0.00
2018-12-26T04:18:09.785Z,0.00
2018-12-26T04:19:09.706Z,0.00
2018-12-26T04:20:09.648Z,0.00
2018-12-26T04:21:09.587Z,0.00
2018-12-26T04:22:09.533Z,0.00
2018-12-26T04:23:09.497Z,0.00
2018-12-26T04:24:09.423Z,0.00
2018-12-26T04:25:09.361Z,0.00
2018-12-26T04:26:09.306Z,0.00
2018-12-26T04:27:15.427Z,0.00
2018-12-26T04:28:09.216Z,0.00
2018-12-26T04:29:09.136Z,0.00
2018-12-26T04:30:09.076Z,0.00
2018-12-26T04:31:09.092Z,0.00
2018-12-26T04:32:08.969Z,0.00
2018-12-26T04:33:08.931Z,0.00
2018-12-26T04:34:08.854Z,0.00
2018-12-26T04:35:08.800Z,0.00
2018-12-26T04:36:08.743Z,0.00
2018-12-26T04:37:08.685Z,0.00
2018-12-26T04:38:08.655Z,0.00
2018-12-26T04:39:08.574Z,0.00
2018-12-26T04:40:08.518Z,0.00
2018-12-26T04:41:08.462Z,0.00
2018-12-26T04:42:08.399Z,0.00
2018-12-26T04:43:08.370Z,0.00
2018-12-26T04:44:08.293Z,0.00
2018-12-26T04:45:08.238Z,0.00
2018-12-26T04:46:08.180Z,0.00
2018-12-26T04:47:08.121Z,0.00
2018-12-26T04:48:08.179Z,0.00
2018-12-26T04:49:08.004Z,0.00
2018-12-26T04:50:07.954Z,0.00
2018-12-26T04:51:07.897Z,0.00
2018-12-26T04:52:07.846Z,0.00
2018-12-26T04:53:07.801Z,0.00
2018-12-26T04:54:07.726Z,0.00
2018-12-26T04:55:07.671Z,0.00
2018-12-26T04:56:07.617Z,0.00
2018-12-26T04:57:07.557Z,0.00
2018-12-26T04:58:07.532Z,0.00
2018-12-26T04:59:07.445Z,0.00
2018-12-26T05:00:07.390Z,0.00
2018-12-26T05:01:07.332Z,0.00
2018-12-26T05:02:07.275Z,0.00
2018-12-26T05:03:07.244Z,0.00
2018-12-26T05:04:07.165Z,0.00
2018-12-26T05:05:07.109Z,0.00
2018-12-26T05:06:07.051Z,0.00
2018-12-26T05:07:06.996Z,0.00
2018-12-26T05:08:06.963Z,0.00
2018-12-26T05:09:06.888Z,0.00
2018-12-26T05:10:06.820Z,0.00
2018-12-26T05:11:06.770Z,0.00
2018-12-26T05:12:06.714Z,0.00
2018-12-26T05:13:06.678Z,0.00
2018-12-26T05:14:06.599Z,0.00
2018-12-26T05:15:06.543Z,0.00
2018-12-26T05:16:06.487Z,0.00
2018-12-26T05:17:06.430Z,0.00
2018-12-26T05:18:06.399Z,0.00
2018-12-26T05:19:06.319Z,0.00
2018-12-26T05:20:06.262Z,0.00
2018-12-26T05:21:06.206Z,0.00
2018-12-26T05:22:06.148Z,0.00
2018-12-26T05:23:06.111Z,0.00
2018-12-26T05:24:06.040Z,0.00
2018-12-26T05:25:05.985Z,0.00
2018-12-26T05:26:05.981Z,0.00
2018-12-26T05:27:05.872Z,0.00
2018-12-26T05:28:05.839Z,0.00
2018-12-26T05:29:05.746Z,0.00
2018-12-26T05:30:05.698Z,0.00
2018-12-26T05:31:05.638Z,0.00
2018-12-26T05:32:05.581Z,0.00
2018-12-26T05:33:05.544Z,0.00
2018-12-26T05:34:05.468Z,0.00
2018-12-26T05:35:05.414Z,0.00
2018-12-26T05:36:05.360Z,0.00
2018-12-26T05:37:05.301Z,0.00
2018-12-26T05:38:05.262Z,0.00
2018-12-26T05:39:05.182Z,0.00
2018-12-26T05:40:05.132Z,0.00
2018-12-26T05:41:05.070Z,0.00
2018-12-26T05:42:05.008Z,0.00
2018-12-26T05:43:04.979Z,0.00
2018-12-26T05:44:04.903Z,0.00
2018-12-26T05:45:04.850Z,0.00
2018-12-26T05:46:04.790Z,0.00
2018-12-26T05:47:04.731Z,0.00
2018-12-26T05:48:04.703Z,0.00
2018-12-26T05:49:04.620Z,0.00
2018-12-26T05:50:04.557Z,0.00
2018-12-26T05:51:04.509Z,0.00
2018-12-26T05:52:04.446Z,0.00
2018-12-26T05:53:04.413Z,0.00
2018-12-26T05:54:04.334Z,0.00
2018-12-26T05:55:04.282Z,0.00
2018-12-26T05:56:04.221Z,0.00
2018-12-26T05:57:04.169Z,0.00
2018-12-26T05:58:04.128Z,0.00
2018-12-26T05:59:04.049Z,0.00
2018-12-26T06:00:03.993Z,0.00
2018-12-26T06:01:03.936Z,0.00
2018-12-26T06:02:03.884Z,0.00
2018-12-26T06:03:03.845Z,0.00
2018-12-26T06:04:03.768Z,0.00
2018-12-26T06:05:03.710Z,0.00
2018-12-26T06:06:03.654Z,0.00
2018-12-26T06:07:03.598Z,0.00
2018-12-26T06:08:03.582Z,0.00
2018-12-26T06:09:03.483Z,0.00
2018-12-26T06:10:03.423Z,0.00
2018-12-26T06:11:03.370Z,0.00
2018-12-26T06:12:03.312Z,0.00
2018-12-26T06:13:03.255Z,0.00
2018-12-26T06:14:03.221Z,0.00
2018-12-26T06:15:03.143Z,0.00
2018-12-26T06:16:03.086Z,0.00
2018-12-26T06:17:03.032Z,0.00
2018-12-26T06:18:02.973Z,0.00
2018-12-26T06:19:02.940Z,0.00
2018-12-26T06:20:02.857Z,0.00
2018-12-26T06:21:02.799Z,0.00
2018-12-26T06:22:02.743Z,0.00
2018-12-26T06:23:02.697Z,0.00
2018-12-26T06:24:02.652Z,0.00
2018-12-26T06:25:02.574Z,0.00
2018-12-26T06:26:02.533Z,0.00
2018-12-26T06:27:02.458Z,0.00
2018-12-26T06:28:02.406Z,0.00
2018-12-26T06:29:02.373Z,0.00
2018-12-26T06:30:02.347Z,0.00
2018-12-26T06:31:02.231Z,0.00
2018-12-26T06:32:02.179Z,0.00
2018-12-26T06:33:02.147Z,0.00
2018-12-26T06:34:02.084Z,0.00
2018-12-26T06:35:02.106Z,0.00
2018-12-26T06:36:01.951Z,0.00
2018-12-26T06:37:01.891Z,0.00
2018-12-26T06:38:01.833Z,0.00
2018-12-26T06:39:01.804Z,0.00
2018-12-26T06:40:01.721Z,0.00
2018-12-26T06:41:01.667Z,0.00
2018-12-26T06:42:01.604Z,0.00
2018-12-26T06:43:01.555Z,0.00
2018-12-26T06:44:01.515Z,0.00
2018-12-26T06:45:01.439Z,0.00
2018-12-26T06:46:01.376Z,0.00
2018-12-26T06:47:01.321Z,0.00
2018-12-26T06:48:01.271Z,0.00
2018-12-26T06:49:01.233Z,0.00
2018-12-26T06:50:01.152Z,0.00
2018-12-26T06:51:01.092Z,0.00
2018-12-26T06:52:01.034Z,0.00
2018-12-26T06:53:00.977Z,0.00
2018-12-26T06:54:00.945Z,0.00
2018-12-26T06:55:00.958Z,0.00
2018-12-26T06:56:00.810Z,0.00
2018-12-26T06:57:00.751Z,0.00
2018-12-26T06:58:00.699Z,0.00
2018-12-26T06:59:00.667Z,0.00
2018-12-26T07:00:00.577Z,0.00
2018-12-26T07:01:00.526Z,0.00
2018-12-26T07:02:00.467Z,0.00
2018-12-26T07:03:00.411Z,0.00
2018-12-26T07:04:00.381Z,0.00
2018-12-26T07:05:00.296Z,0.00
2018-12-26T07:06:00.250Z,0.00
2018-12-26T07:07:00.185Z,0.00
2018-12-26T07:08:00.126Z,0.00
2018-12-26T07:09:00.095Z,4.00
2018-12-26T07:10:00.012Z,4.00
2018-12-26T07:10:59.942Z,0.00
2018-12-26T07:11:59.902Z,4.00
2018-12-26T07:12:59.841Z,4.00
2018-12-26T07:13:59.809Z,4.00
2018-12-26T07:14:59.730Z,4.00
2018-12-26T07:15:59.671Z,8.00
2018-12-26T07:16:59.618Z,8.00
2018-12-26T07:17:59.648Z,8.00
2018-12-26T07:18:59.536Z,8.00
2018-12-26T07:19:59.445Z,8.00
2018-12-26T07:20:59.385Z,8.00
2018-12-26T07:21:59.336Z,8.00
2018-12-26T07:22:59.275Z,12.00
2018-12-26T07:23:59.216Z,12.00
2018-12-26T07:24:59.184Z,16.00
2018-12-26T07:25:59.101Z,16.00
2018-12-26T07:26:59.049Z,16.00
2018-12-26T07:27:58.990Z,16.00
2018-12-26T07:29:00.987Z,16.00
2018-12-26T07:29:58.899Z,24.00
2018-12-26T07:30:58.815Z,20.00
2018-12-26T07:31:58.760Z,24.00
2018-12-26T07:32:58.707Z,28.00
2018-12-26T07:33:58.650Z,36.00
2018-12-26T07:34:58.618Z,32.00
2018-12-26T07:35:58.534Z,32.00
2018-12-26T07:36:58.475Z,32.00
2018-12-26T07:37:58.421Z,36.00
2018-12-26T07:38:58.366Z,36.00
2018-12-26T07:39:58.329Z,36.00
2018-12-26T07:40:58.251Z,44.00
2018-12-26T07:41:58.194Z,48.00
2018-12-26T07:42:58.135Z,52.00
2018-12-26T07:43:58.080Z,52.00
2018-12-26T07:44:58.046Z,56.00
2018-12-26T07:45:57.965Z,56.00
2018-12-26T07:46:57.909Z,56.00
2018-12-26T07:47:57.863Z,60.00
2018-12-26T07:48:57.811Z,64.00
2018-12-26T07:49:57.759Z,72.00
2018-12-26T07:50:57.684Z,68.00
2018-12-26T07:51:57.625Z,68.00
2018-12-26T07:52:57.565Z,76.00
2018-12-26T07:53:57.510Z,76.00
2018-12-26T07:54:57.478Z,84.00
2018-12-26T07:55:57.399Z,88.00
2018-12-26T07:56:57.343Z,84.00
2018-12-26T07:57:57.284Z,88.00
2018-12-26T07:58:57.330Z,76.00
2018-12-26T07:59:57.197Z,96.00
2018-12-26T08:00:57.112Z,96.00
2018-12-26T08:01:57.058Z,100.00
2018-12-26T08:02:57.002Z,92.00
2018-12-26T08:03:56.943Z,116.00
2018-12-26T08:04:56.909Z,112.00
2018-12-26T08:05:56.833Z,108.00
2018-12-26T08:06:56.770Z,116.00
2018-12-26T08:07:56.710Z,116.00
2018-12-26T08:08:56.659Z,128.00
2018-12-26T08:09:56.623Z,128.00
2018-12-26T08:10:56.549Z,128.00
2018-12-26T08:11:56.490Z,144.00
2018-12-26T08:12:56.430Z,160.00
2018-12-26T08:13:56.379Z,160.00
2018-12-26T08:14:56.342Z,168.00
2018-12-26T08:15:56.257Z,168.00
2018-12-26T08:16:56.203Z,188.00
2018-12-26T08:17:56.150Z,184.00
2018-12-26T08:18:56.088Z,196.00
2018-12-26T08:19:56.061Z,192.00
2018-12-26T08:20:55.974Z,188.00
2018-12-26T08:21:55.926Z,204.00
2018-12-26T08:22:55.863Z,196.00
2018-12-26T08:23:55.807Z,216.00
2018-12-26T08:24:55.749Z,240.00
2018-12-26T08:25:55.716Z,228.00
2018-12-26T08:26:55.637Z,224.00
2018-12-26T08:27:55.578Z,236.00
2018-12-26T08:28:55.518Z,248.00
2018-12-26T08:29:55.468Z,256.00
2018-12-26T08:30:55.431Z,252.00
2018-12-26T08:31:55.354Z,256.00
2018-12-26T08:32:55.306Z,272.00
2018-12-26T08:33:55.243Z,260.00
2018-12-26T08:34:55.182Z,272.00
2018-12-26T08:35:55.152Z,292.00
2018-12-26T08:36:55.067Z,304.00
2018-12-26T08:37:55.011Z,292.00
2018-12-26T08:38:54.952Z,272.00
2018-12-26T08:39:54.903Z,280.00
2018-12-26T08:40:54.865Z,284.00
2018-12-26T08:41:54.787Z,300.00
2018-12-26T08:42:54.727Z,328.00
2018-12-26T08:43:54.673Z,320.00
2018-12-26T08:44:54.612Z,312.00
2018-12-26T08:45:54.577Z,352.00
2018-12-26T08:46:54.503Z,348.00
2018-12-26T08:47:54.447Z,316.00
2018-12-26T08:48:54.389Z,348.00
2018-12-26T08:49:54.333Z,368.00
2018-12-26T08:50:54.312Z,376.00
2018-12-26T08:51:54.231Z,356.00
2018-12-26T08:52:54.160Z,340.00
2018-12-26T08:53:54.106Z,364.00
2018-12-26T08:54:54.046Z,312.00
2018-12-26T08:55:54.015Z,308.00
2018-12-26T08:56:53.932Z,300.00
2018-12-26T08:57:53.877Z,276.00
2018-12-26T08:58:53.821Z,272.00
2018-12-26T08:59:53.787Z,276.00
2018-12-26T09:00:53.733Z,288.00
2018-12-26T09:01:53.650Z,324.00
2018-12-26T09:02:53.595Z,356.00
2018-12-26T09:03:53.535Z,376.00
2018-12-26T09:04:53.477Z,400.00
2018-12-26T09:05:53.444Z,380.00
2018-12-26T09:06:53.361Z,400.00
2018-12-26T09:07:53.315Z,384.00
2018-12-26T09:08:53.253Z,396.00
2018-12-26T09:09:53.205Z,416.00
2018-12-26T09:10:53.164Z,364.00
2018-12-26T09:11:53.084Z,376.00
2018-12-26T09:12:53.024Z,408.00
2018-12-26T09:13:52.973Z,412.00
2018-12-26T09:14:52.919Z,396.00
2018-12-26T09:15:52.879Z,424.00
2018-12-26T09:16:52.824Z,404.00
2018-12-26T09:17:52.743Z,392.00
2018-12-26T09:18:52.690Z,404.00
2018-12-26T09:19:52.629Z,480.00
2018-12-26T09:20:52.581Z,480.00
2018-12-26T09:21:52.537Z,488.00
2018-12-26T09:22:52.470Z,464.00
2018-12-26T09:23:52.403Z,484.00
2018-12-26T09:24:52.365Z,508.00
2018-12-26T09:25:52.288Z,468.00
2018-12-26T09:26:52.258Z,432.00
2018-12-26T09:27:52.173Z,456.00
2018-12-26T09:28:52.118Z,448.00
2018-12-26T09:29:53.141Z,468.00
2018-12-26T09:30:52.026Z,440.00
2018-12-26T09:31:51.967Z,492.00
2018-12-26T09:32:51.896Z,460.00
2018-12-26T09:33:51.822Z,452.00
2018-12-26T09:34:51.777Z,496.00
2018-12-26T09:35:51.723Z,500.00
2018-12-26T09:36:51.692Z,484.00
2018-12-26T09:37:51.607Z,456.00
2018-12-26T09:38:51.551Z,488.00
2018-12-26T09:39:51.496Z,496.00
2018-12-26T09:40:51.440Z,448.00
2018-12-26T09:41:51.405Z,464.00
2018-12-26T09:42:51.321Z,444.00
2018-12-26T09:43:51.267Z,452.00
2018-12-26T09:44:54.573Z,472.00
2018-12-26T09:45:51.155Z,496.00
2018-12-26T09:46:51.125Z,500.00
2018-12-26T09:47:51.046Z,524.00
2018-12-26T09:48:50.985Z,524.00
2018-12-26T09:49:50.930Z,524.00
2018-12-26T09:50:50.880Z,504.00
2018-12-26T09:51:50.843Z,556.00
2018-12-26T09:52:50.759Z,452.00
2018-12-26T09:53:50.711Z,448.00
2018-12-26T09:54:50.648Z,456.00
2018-12-26T09:55:50.587Z,460.00
2018-12-26T09:56:50.556Z,448.00
2018-12-26T09:57:50.474Z,484.00
2018-12-26T09:58:52.556Z,512.00
2018-12-26T09:59:50.364Z,520.00
2018-12-26T10:00:50.304Z,472.00
2018-12-26T10:01:50.273Z,568.00
2018-12-26T10:02:50.194Z,556.00
2018-12-26T10:03:50.140Z,556.00
2018-12-26T10:04:50.083Z,572.00
2018-12-26T10:05:50.024Z,560.00
2018-12-26T10:06:49.991Z,548.00
2018-12-26T10:07:49.912Z,544.00
2018-12-26T10:08:49.852Z,612.00
2018-12-26T10:09:49.798Z,592.00
2018-12-26T10:10:49.741Z,560.00
2018-12-26T10:11:49.746Z,544.00
2018-12-26T10:12:49.628Z,604.00
2018-12-26T10:13:50.847Z,596.00
2018-12-26T10:14:49.521Z,564.00
2018-12-26T10:15:49.470Z,600.00
2018-12-26T10:16:49.425Z,576.00
2018-12-26T10:17:49.367Z,580.00
2018-12-26T10:18:49.286Z,656.00
2018-12-26T10:19:50.254Z,636.00
2018-12-26T10:20:49.176Z,612.00
2018-12-26T10:21:49.120Z,564.00
2018-12-26T10:22:49.085Z,620.00
2018-12-26T10:23:49.005Z,608.00
2018-12-26T10:24:48.950Z,672.00
2018-12-26T10:25:48.891Z,684.00
2018-12-26T10:26:48.836Z,660.00
2018-12-26T10:27:48.799Z,588.00
2018-12-26T10:28:48.721Z,632.00
2018-12-26T10:29:48.665Z,644.00
2018-12-26T10:30:48.610Z,584.00
2018-12-26T10:31:48.551Z,596.00
2018-12-26T10:32:48.519Z,624.00
2018-12-26T10:33:48.440Z,684.00
2018-12-26T10:34:48.384Z,612.00
2018-12-26T10:35:48.334Z,596.00
2018-12-26T10:36:48.269Z,648.00
2018-12-26T10:37:48.241Z,720.00
2018-12-26T10:38:48.160Z,644.00
2018-12-26T10:39:48.108Z,656.00
2018-12-26T10:40:48.044Z,728.00
2018-12-26T10:41:47.989Z,656.00
2018-12-26T10:42:47.961Z,640.00
2018-12-26T10:43:47.923Z,664.00
2018-12-26T10:44:47.817Z,612.00
2018-12-26T10:45:47.762Z,656.00
2018-12-26T10:46:47.708Z,644.00
2018-12-26T10:47:47.671Z,640.00
2018-12-26T10:48:47.592Z,676.00
2018-12-26T10:49:47.540Z,668.00
2018-12-26T10:50:47.485Z,632.00
2018-12-26T10:51:47.425Z,636.00
2018-12-26T10:52:47.391Z,620.00
2018-12-26T10:53:47.311Z,684.00
2018-12-26T10:54:47.252Z,676.00
2018-12-26T10:55:47.201Z,696.00
2018-12-26T10:56:47.140Z,644.00
2018-12-26T10:57:47.105Z,632.00
2018-12-26T10:58:47.030Z,676.00
2018-12-26T10:59:46.977Z,684.00
2018-12-26T11:00:46.917Z,788.00
2018-12-26T11:01:46.858Z,808.00
2018-12-26T11:02:46.826Z,736.00
2018-12-26T11:03:46.742Z,744.00
2018-12-26T11:04:48.606Z,772.00
2018-12-26T11:05:46.627Z,708.00
2018-12-26T11:06:46.577Z,732.00
2018-12-26T11:07:46.543Z,744.00
2018-12-26T11:08:46.464Z,716.00
2018-12-26T11:09:46.405Z,780.00
2018-12-26T11:10:46.349Z,712.00
2018-12-26T11:11:46.295Z,804.00
2018-12-26T11:12:46.281Z,836.00
2018-12-26T11:13:46.179Z,764.00
2018-12-26T11:14:46.123Z,820.00
2018-12-26T11:15:46.066Z,756.00
2018-12-26T11:16:46.009Z,736.00
2018-12-26T11:17:45.961Z,692.00
2018-12-26T11:18:45.922Z,716.00
2018-12-26T11:19:45.841Z,668.00
2018-12-26T11:20:45.787Z,684.00
2018-12-26T11:21:45.741Z,696.00
2018-12-26T11:22:45.679Z,772.00
2018-12-26T11:23:45.643Z,808.00
2018-12-26T11:24:45.562Z,760.00
2018-12-26T11:25:45.504Z,712.00
2018-12-26T11:26:45.447Z,724.00
2018-12-26T11:27:45.383Z,668.00
2018-12-26T11:28:45.359Z,620.00
2018-12-26T11:29:45.277Z,644.00
2018-12-26T11:30:45.220Z,608.00
2018-12-26T11:31:45.167Z,664.00
2018-12-26T11:32:45.108Z,680.00
2018-12-26T11:33:45.078Z,680.00
2018-12-26T11:34:44.992Z,684.00
2018-12-26T11:35:44.937Z,644.00
2018-12-26T11:36:44.882Z,720.00
2018-12-26T11:37:44.823Z,696.00
2018-12-26T11:38:44.790Z,632.00
2018-12-26T11:39:44.708Z,652.00
2018-12-26T11:40:44.652Z,680.00
2018-12-26T11:41:44.595Z,680.00
2018-12-26T11:42:44.546Z,672.00
2018-12-26T11:43:44.514Z,772.00
2018-12-26T11:44:44.426Z,700.00
2018-12-26T11:45:44.379Z,760.00
2018-12-26T11:46:44.318Z,728.00
2018-12-26T11:47:44.265Z,780.00
2018-12-26T11:48:44.228Z,832.00
2018-12-26T11:49:44.145Z,868.00
2018-12-26T11:50:44.102Z,848.00
2018-12-26T11:51:44.125Z,748.00
2018-12-26T11:52:44.076Z,736.00
2018-12-26T11:53:43.945Z,724.00
2018-12-26T11:54:44.141Z,732.00
2018-12-26T11:55:43.839Z,764.00
2018-12-26T11:56:43.751Z,728.00
2018-12-26T11:57:43.740Z,696.00
2018-12-26T11:58:44.745Z,680.00
2018-12-26T11:59:43.743Z,736.00
2018-12-26T12:00:43.630Z,816.00
2018-12-26T12:01:43.470Z,740.00
2018-12-26T12:02:43.414Z,780.00
2018-12-26T12:03:43.398Z,624.00
2018-12-26T12:04:43.296Z,764.00
2018-12-26T12:05:43.243Z,740.00
2018-12-26T12:06:43.189Z,688.00
2018-12-26T12:07:43.133Z,660.00
2018-12-26T12:08:43.077Z,696.00
2018-12-26T12:09:43.049Z,728.00
2018-12-26T12:10:42.963Z,784.00
2018-12-26T12:11:42.903Z,776.00
2018-12-26T12:12:42.860Z,784.00
2018-12-26T12:13:42.794Z,760.00
2018-12-26T12:14:42.762Z,736.00
2018-12-26T12:15:42.684Z,784.00
2018-12-26T12:16:44.732Z,720.00
2018-12-26T12:17:42.569Z,676.00
2018-12-26T12:18:42.512Z,688.00
2018-12-26T12:19:42.481Z,680.00
2018-12-26T12:20:42.398Z,708.00
2018-12-26T12:21:42.356Z,744.00
2018-12-26T12:22:42.286Z,752.00
2018-12-26T12:23:42.232Z,720.00
2018-12-26T12:24:42.196Z,772.00
2018-12-26T12:25:42.118Z,776.00
2018-12-26T12:26:42.059Z,756.00
2018-12-26T12:27:42.005Z,764.00
2018-12-26T12:28:41.948Z,680.00
2018-12-26T12:29:41.916Z,760.00
2018-12-26T12:30:41.836Z,688.00
2018-12-26T12:31:41.782Z,760.00
2018-12-26T12:32:41.721Z,772.00
2018-12-26T12:33:41.665Z,700.00
2018-12-26T12:34:41.636Z,632.00
2018-12-26T12:35:41.550Z,608.00
2018-12-26T12:36:41.495Z,628.00
2018-12-26T12:37:41.435Z,640.00
2018-12-26T12:38:41.384Z,668.00
2018-12-26T12:39:41.357Z,712.00
2018-12-26T12:40:41.271Z,632.00
2018-12-26T12:41:41.215Z,652.00
2018-12-26T12:42:41.159Z,748.00
2018-12-26T12:43:41.105Z,716.00
2018-12-26T12:44:41.102Z,736.00
2018-12-26T12:45:40.992Z,716.00
2018-12-26T12:46:40.933Z,684.00
2018-12-26T12:47:40.878Z,704.00
2018-12-26T12:48:40.820Z,688.00
2018-12-26T12:49:40.767Z,760.00
2018-12-26T12:50:40.720Z,840.00
2018-12-26T12:51:40.648Z,684.00
2018-12-26T12:52:40.594Z,656.00
2018-12-26T12:53:40.541Z,604.00
2018-12-26T12:54:40.484Z,704.00
2018-12-26T12:55:41.967Z,740.00
2018-12-26T12:56:40.374Z,692.00